createdAt,value
2018-02-16T00:00:45.739Z,69.80
2018-02-16T00:01:45.685Z,68.30
2018-02-16T00:02:45.582Z,67.20
2018-02-16T00:03:46.096Z,67.70
2018-02-16T00:04:45.863Z,67.20
2018-02-16T00:05:45.781Z,66.00
2018-02-16T00:06:45.408Z,67.50
2018-02-16T00:07:46.234Z,69.90
2018-02-16T00:08:45.648Z,72.50
2018-02-16T00:09:46.097Z,73.20
2018-02-16T00:10:45.736Z,73.00
2018-02-16T00:12:07.087Z,75.70
2018-02-16T00:13:29.274Z,70.70
2018-02-16T00:14:29.718Z,80.60
2018-02-16T00:15:29.512Z,77.20
2018-02-16T00:16:29.499Z,75.90
2018-02-16T00:17:30.264Z,79.60
2018-02-16T00:18:30.212Z,72.20
2018-02-16T00:19:30.098Z,82.30
2018-02-16T00:20:29.638Z,81.10
2018-02-16T00:21:29.086Z,84.00
2018-02-16T00:22:29.546Z,84.40
2018-02-16T00:23:29.051Z,78.80
2018-02-16T00:24:30.441Z,73.10
2018-02-16T00:25:30.210Z,82.10
2018-02-16T00:26:29.614Z,84.00
2018-02-16T00:27:29.137Z,77.70
2018-02-16T00:28:29.475Z,81.10
2018-02-16T00:29:29.476Z,79.90
2018-02-16T00:30:30.457Z,82.80
2018-02-16T00:31:29.940Z,75.80
2018-02-16T00:32:29.540Z,69.00
2018-02-16T00:33:28.915Z,67.00
2018-02-16T00:34:29.424Z,75.30
2018-02-16T00:35:28.984Z,68.60
2018-02-16T00:36:29.740Z,66.90
2018-02-16T00:37:29.177Z,65.50
2018-02-16T00:38:29.577Z,75.40
2018-02-16T00:39:29.163Z,74.90
2018-02-16T00:40:29.941Z,76.30
2018-02-16T00:41:29.775Z,73.50
2018-02-16T00:42:29.926Z,70.00
2018-02-16T00:43:29.627Z,72.00
2018-02-16T00:44:29.054Z,73.60
2018-02-16T00:45:29.488Z,68.80
2018-02-16T00:46:29.517Z,76.50
2018-02-16T00:47:29.152Z,75.40
2018-02-16T00:48:29.512Z,72.20
2018-02-16T00:49:29.098Z,78.00
2018-02-16T00:50:29.524Z,87.60
2018-02-16T00:51:29.076Z,80.80
2018-02-16T00:52:29.894Z,79.00
2018-02-16T00:53:29.423Z,75.50
2018-02-16T00:54:30.281Z,76.50
2018-02-16T00:55:30.140Z,74.60
2018-02-16T00:56:29.511Z,74.60
2018-02-16T00:57:51.297Z,69.60
2018-02-16T00:59:13.062Z,72.00
2018-02-16T01:00:13.865Z,67.30
2018-02-16T01:01:13.557Z,75.30
2018-02-16T01:02:14.217Z,70.60
2018-02-16T01:03:14.422Z,80.90
2018-02-16T01:04:13.995Z,75.10
2018-02-16T01:05:13.726Z,78.90
2018-02-16T01:06:14.359Z,74.50
2018-02-16T01:07:13.756Z,67.10
2018-02-16T01:08:35.348Z,71.40
2018-02-16T01:09:36.251Z,74.10
2018-02-16T01:10:35.842Z,74.50
2018-02-16T01:11:35.796Z,69.40
2018-02-16T01:12:35.266Z,68.30
2018-02-16T01:13:36.002Z,68.60
2018-02-16T01:14:35.510Z,72.60
2018-02-16T01:15:36.309Z,74.30
2018-02-16T01:16:36.099Z,73.40
2018-02-16T01:17:35.991Z,71.20
2018-02-16T01:18:35.805Z,77.60
2018-02-16T01:19:35.685Z,79.10
2018-02-16T01:20:35.283Z,76.80
2018-02-16T01:21:35.702Z,72.10
2018-02-16T01:22:35.543Z,68.00
2018-02-16T01:23:35.976Z,71.90
2018-02-16T01:24:35.776Z,70.20
2018-02-16T01:25:35.463Z,71.80
2018-02-16T01:26:36.022Z,72.10
2018-02-16T01:27:56.530Z,66.60
2018-02-16T01:28:57.028Z,78.00
2018-02-16T01:29:57.535Z,83.90
2018-02-16T01:30:57.030Z,80.00
2018-02-16T01:31:57.650Z,87.80
2018-02-16T01:32:57.251Z,83.60
2018-02-16T01:33:57.121Z,80.70
2018-02-16T01:34:56.830Z,90.10
2018-02-16T01:35:57.294Z,86.10
2018-02-16T01:36:56.762Z,96.10
2018-02-16T01:37:57.178Z,83.80
2018-02-16T01:38:56.571Z,85.80
2018-02-16T01:39:57.504Z,97.30
2018-02-16T01:40:57.241Z,85.00
2018-02-16T01:41:57.193Z,85.80
2018-02-16T01:42:56.605Z,83.00
2018-02-16T01:43:56.978Z,88.50
2018-02-16T01:44:56.427Z,80.20
2018-02-16T01:45:57.543Z,88.40
2018-02-16T01:46:56.864Z,74.80
2018-02-16T01:47:57.815Z,80.20
2018-02-16T01:48:57.845Z,77.40
2018-02-16T01:49:57.649Z,80.40
2018-02-16T01:50:57.359Z,82.50
2018-02-16T01:51:56.972Z,71.50
2018-02-16T01:52:56.570Z,82.00
2018-02-16T01:53:57.384Z,79.90
2018-02-16T01:54:57.152Z,77.40
2018-02-16T01:55:56.781Z,73.70
2018-02-16T01:56:57.371Z,71.20
2018-02-16T01:57:56.739Z,79.40
2018-02-16T01:58:57.574Z,68.60
2018-02-16T01:59:57.227Z,79.70
2018-02-16T02:00:57.007Z,72.00
2018-02-16T02:01:56.498Z,67.20
2018-02-16T02:02:57.294Z,69.90
2018-02-16T02:03:56.608Z,74.20
2018-02-16T02:04:57.085Z,69.30
2018-02-16T02:05:56.617Z,72.00
2018-02-16T02:06:57.366Z,74.60
2018-02-16T02:07:57.266Z,75.00
2018-02-16T02:08:56.580Z,72.10
2018-02-16T02:09:57.345Z,77.60
2018-02-16T02:10:57.134Z,75.30
2018-02-16T02:11:56.519Z,75.80
2018-02-16T02:12:57.424Z,76.50
2018-02-16T02:13:56.826Z,75.50
2018-02-16T02:14:57.602Z,77.80
2018-02-16T02:15:57.045Z,79.20
2018-02-16T02:16:56.500Z,74.20
2018-02-16T02:17:57.850Z,77.70
2018-02-16T02:18:57.317Z,80.20
2018-02-16T02:19:57.221Z,76.90
2018-02-16T02:20:56.669Z,77.50
2018-02-16T02:21:57.385Z,79.80
2018-02-16T02:22:57.231Z,79.30
2018-02-16T02:23:57.030Z,77.30
2018-02-16T02:24:56.619Z,77.00
2018-02-16T02:25:57.345Z,75.30
2018-02-16T02:26:56.732Z,72.40
2018-02-16T02:27:58.223Z,77.40
2018-02-16T02:28:56.624Z,75.70
2018-02-16T02:29:57.455Z,75.60
2018-02-16T02:30:57.348Z,75.00
2018-02-16T02:31:56.842Z,75.60
2018-02-16T02:32:56.804Z,68.40
2018-02-16T02:33:57.445Z,73.60
2018-02-16T02:34:57.170Z,74.90
2018-02-16T02:35:56.584Z,77.10
2018-02-16T02:36:57.628Z,77.70
2018-02-16T02:37:56.958Z,80.60
2018-02-16T02:38:57.820Z,75.20
2018-02-16T02:39:57.452Z,82.50
2018-02-16T02:40:56.866Z,77.90
2018-02-16T02:41:57.776Z,77.80
2018-02-16T02:42:57.531Z,78.10
2018-02-16T02:43:57.378Z,79.70
2018-02-16T02:44:57.093Z,74.40
2018-02-16T02:45:56.866Z,76.40
2018-02-16T02:46:57.724Z,75.10
2018-02-16T02:47:57.099Z,72.10
2018-02-16T02:48:56.852Z,73.90
2018-02-16T02:49:56.805Z,73.40
2018-02-16T02:50:57.435Z,73.80
2018-02-16T02:51:56.972Z,72.70
2018-02-16T02:52:56.654Z,71.30
2018-02-16T02:53:57.283Z,74.90
2018-02-16T02:54:57.599Z,73.30
2018-02-16T02:55:56.954Z,76.50
2018-02-16T02:56:57.412Z,73.80
2018-02-16T02:57:56.867Z,74.30
2018-02-16T02:58:56.663Z,71.10
2018-02-16T02:59:57.685Z,75.60
2018-02-16T03:00:57.604Z,76.20
2018-02-16T03:01:56.995Z,70.60
2018-02-16T03:02:56.292Z,79.10
2018-02-16T03:03:56.824Z,75.30
2018-02-16T03:04:57.870Z,78.90
2018-02-16T03:05:57.542Z,75.70
2018-02-16T03:06:57.380Z,74.30
2018-02-16T03:07:56.769Z,75.70
2018-02-16T03:08:57.118Z,73.10
2018-02-16T03:09:56.579Z,79.30
2018-02-16T03:10:57.330Z,78.50
2018-02-16T03:12:18.438Z,76.40
2018-02-16T03:13:19.049Z,78.80
2018-02-16T03:14:18.769Z,79.40
2018-02-16T03:15:18.694Z,77.70
2018-02-16T03:16:18.566Z,76.90
2018-02-16T03:17:18.793Z,77.50
2018-02-16T03:18:18.602Z,75.00
2018-02-16T03:19:19.105Z,75.60
2018-02-16T03:20:19.043Z,78.40
2018-02-16T03:21:18.521Z,79.20
2018-02-16T03:22:18.995Z,77.40
2018-02-16T03:23:18.693Z,74.40
2018-02-16T03:24:19.308Z,76.50
2018-02-16T03:25:18.687Z,77.00
2018-02-16T03:26:18.058Z,77.10
2018-02-16T03:27:18.913Z,76.90
2018-02-16T03:28:18.591Z,73.30
2018-02-16T03:29:18.804Z,76.80
2018-02-16T03:30:18.493Z,77.10
2018-02-16T03:31:19.491Z,80.20
2018-02-16T03:32:18.967Z,82.50
2018-02-16T03:33:18.792Z,79.90
2018-02-16T03:34:18.199Z,78.90
2018-02-16T03:35:18.503Z,79.60
2018-02-16T03:36:19.381Z,79.50
2018-02-16T03:37:19.183Z,76.60
2018-02-16T03:38:18.670Z,79.00
2018-02-16T03:39:19.041Z,79.00
2018-02-16T03:40:18.802Z,76.40
2018-02-16T03:41:18.087Z,78.40
2018-02-16T03:42:19.074Z,77.60
2018-02-16T03:43:18.264Z,79.50
2018-02-16T03:44:18.649Z,73.50
2018-02-16T03:45:18.422Z,74.20
2018-02-16T03:46:19.092Z,74.40
2018-02-16T03:47:18.536Z,76.00
2018-02-16T03:48:19.206Z,77.40
2018-02-16T03:49:18.948Z,74.50
2018-02-16T03:50:18.346Z,73.00
2018-02-16T03:51:18.684Z,75.80
2018-02-16T03:52:18.079Z,76.60
2018-02-16T03:53:18.978Z,77.70
2018-02-16T03:54:18.505Z,74.60
2018-02-16T03:55:19.232Z,74.70
2018-02-16T03:56:18.467Z,73.10
2018-02-16T03:57:18.853Z,73.30
2018-02-16T03:58:18.275Z,73.80
2018-02-16T03:59:18.927Z,73.60
2018-02-16T04:00:18.641Z,76.40
2018-02-16T04:01:18.050Z,80.00
2018-02-16T04:02:18.406Z,74.30
2018-02-16T04:03:19.025Z,74.90
2018-02-16T04:04:18.266Z,76.60
2018-02-16T04:05:19.307Z,74.00
2018-02-16T04:06:39.448Z,73.50
2018-02-16T04:07:39.942Z,76.40
2018-02-16T04:08:40.493Z,76.60
2018-02-16T04:09:39.953Z,77.30
2018-02-16T04:10:40.810Z,75.00
2018-02-16T04:11:40.570Z,73.90
2018-02-16T04:12:39.875Z,72.90
2018-02-16T04:13:40.171Z,75.10
2018-02-16T04:14:39.699Z,73.50
2018-02-16T04:15:40.396Z,75.20
2018-02-16T04:16:40.133Z,71.30
2018-02-16T04:17:39.589Z,74.70
2018-02-16T04:18:40.166Z,75.70
2018-02-16T04:19:39.632Z,75.60
2018-02-16T04:20:39.893Z,74.00
2018-02-16T04:21:40.776Z,74.10
2018-02-16T04:22:40.297Z,77.50
2018-02-16T04:23:39.786Z,78.20
2018-02-16T04:24:40.054Z,74.70
2018-02-16T04:25:40.647Z,75.50
2018-02-16T04:26:40.154Z,77.20
2018-02-16T04:27:39.588Z,75.00
2018-02-16T04:28:40.098Z,74.20
2018-02-16T04:29:39.415Z,74.00
2018-02-16T04:30:39.727Z,74.80
2018-02-16T04:32:00.852Z,74.50
2018-02-16T04:33:01.142Z,72.60
2018-02-16T04:34:01.886Z,77.10
2018-02-16T04:35:01.146Z,72.90
2018-02-16T04:36:23.164Z,72.10
2018-02-16T04:37:23.541Z,73.10
2018-02-16T04:38:24.557Z,76.50
2018-02-16T04:39:24.225Z,72.10
2018-02-16T04:40:23.529Z,73.90
2018-02-16T04:41:24.347Z,72.20
2018-02-16T04:42:24.161Z,71.40
2018-02-16T04:43:23.682Z,68.30
2018-02-16T04:44:23.530Z,71.80
2018-02-16T04:45:23.925Z,73.60
2018-02-16T04:46:23.528Z,69.00
2018-02-16T04:47:24.146Z,72.10
2018-02-16T04:48:23.659Z,71.90
2018-02-16T04:49:24.351Z,73.70
2018-02-16T04:50:23.809Z,72.50
2018-02-16T04:51:24.101Z,70.00
2018-02-16T04:52:23.213Z,71.90
2018-02-16T04:53:23.933Z,72.20
2018-02-16T04:54:23.273Z,72.70
2018-02-16T04:55:24.139Z,71.20
2018-02-16T04:56:23.786Z,72.40
2018-02-16T04:57:23.253Z,70.90
2018-02-16T04:58:23.802Z,69.80
2018-02-16T04:59:23.220Z,70.20
2018-02-16T05:00:23.884Z,71.10
2018-02-16T05:01:23.089Z,69.90
2018-02-16T05:02:23.464Z,70.40
2018-02-16T05:03:24.232Z,69.00
2018-02-16T05:04:23.893Z,69.50
2018-02-16T05:05:23.685Z,71.10
2018-02-16T05:06:44.992Z,70.10
2018-02-16T05:07:45.312Z,71.30
2018-02-16T05:08:46.044Z,68.90
2018-02-16T05:09:45.304Z,72.20
2018-02-16T05:10:45.931Z,71.00
2018-02-16T05:11:45.204Z,70.80
2018-02-16T05:12:45.368Z,70.00
2018-02-16T05:13:45.941Z,72.10
2018-02-16T05:14:45.600Z,69.70
2018-02-16T05:15:46.211Z,71.90
2018-02-16T05:16:45.565Z,70.80
2018-02-16T05:17:46.314Z,72.90
2018-02-16T05:18:45.638Z,72.00
2018-02-16T05:19:46.205Z,72.70
2018-02-16T05:20:45.749Z,72.40
2018-02-16T05:21:45.217Z,71.50
2018-02-16T05:22:46.139Z,71.10
2018-02-16T05:23:45.413Z,71.60
2018-02-16T05:24:45.841Z,72.60
2018-02-16T05:25:45.232Z,69.00
2018-02-16T05:26:45.977Z,72.50
2018-02-16T05:27:46.033Z,72.60
2018-02-16T05:28:45.425Z,74.70
2018-02-16T05:29:46.054Z,74.60
2018-02-16T05:30:45.451Z,72.70
2018-02-16T05:31:45.872Z,73.90
2018-02-16T05:32:45.289Z,73.40
2018-02-16T05:33:46.491Z,73.10
2018-02-16T05:34:45.790Z,75.20
2018-02-16T05:35:45.129Z,71.30
2018-02-16T05:36:45.497Z,70.70
2018-02-16T05:37:45.913Z,72.60
2018-02-16T05:39:07.233Z,73.90
2018-02-16T05:40:06.825Z,72.90
2018-02-16T05:41:07.117Z,69.40
2018-02-16T05:42:29.613Z,73.20
2018-02-16T05:43:30.795Z,73.50
2018-02-16T05:44:30.352Z,70.70
2018-02-16T05:45:29.646Z,73.60
2018-02-16T05:46:30.230Z,73.10
2018-02-16T05:47:29.883Z,73.90
2018-02-16T05:48:30.301Z,73.20
2018-02-16T05:49:30.059Z,72.50
2018-02-16T05:50:30.656Z,72.70
2018-02-16T05:51:52.059Z,72.70
2018-02-16T05:52:52.861Z,71.30
2018-02-16T05:53:52.723Z,70.30
2018-02-16T05:55:13.940Z,70.30
2018-02-16T05:56:14.415Z,72.30
2018-02-16T05:57:14.096Z,73.70
2018-02-16T05:58:14.686Z,74.40
2018-02-16T05:59:14.322Z,73.30
2018-02-16T06:00:15.518Z,74.70
2018-02-16T06:01:14.120Z,73.80
2018-02-16T06:02:15.040Z,78.40
2018-02-16T06:03:14.425Z,76.20
2018-02-16T06:04:14.462Z,73.40
2018-02-16T06:05:13.914Z,71.90
2018-02-16T06:06:35.636Z,72.10
2018-02-16T06:07:35.926Z,69.30
2018-02-16T06:08:36.634Z,70.30
2018-02-16T06:09:56.842Z,69.70
2018-02-16T06:10:57.620Z,71.60
2018-02-16T06:11:57.911Z,67.00
2018-02-16T06:12:57.569Z,73.10
2018-02-16T06:13:57.295Z,68.80
2018-02-16T06:14:57.958Z,70.70
2018-02-16T06:15:57.706Z,65.10
2018-02-16T06:16:57.548Z,66.50
2018-02-16T06:17:56.941Z,69.50
2018-02-16T06:18:57.804Z,66.90
2018-02-16T06:19:58.331Z,71.80
2018-02-16T06:21:18.334Z,73.50
2018-02-16T06:22:19.165Z,71.40
2018-02-16T06:23:18.837Z,73.90
2018-02-16T06:24:18.755Z,75.20
2018-02-16T06:25:19.577Z,73.50
2018-02-16T06:26:19.108Z,73.20
2018-02-16T06:27:18.538Z,72.80
2018-02-16T06:28:19.226Z,73.60
2018-02-16T06:29:18.880Z,70.20
2018-02-16T06:30:19.305Z,72.80
2018-02-16T06:31:18.581Z,71.60
2018-02-16T06:32:19.181Z,71.90
2018-02-16T06:33:18.753Z,72.00
2018-02-16T06:34:19.434Z,73.00
2018-02-16T06:35:19.362Z,72.50
2018-02-16T06:36:19.044Z,72.90
2018-02-16T06:37:18.733Z,73.70
2018-02-16T06:38:19.441Z,75.70
2018-02-16T06:39:19.055Z,74.50
2018-02-16T06:40:18.862Z,72.70
2018-02-16T06:41:19.216Z,75.30
2018-02-16T06:42:18.912Z,77.00
2018-02-16T06:43:18.703Z,78.00
2018-02-16T06:44:19.656Z,71.90
2018-02-16T06:46:30.343Z,73.80
2018-02-16T06:47:19.124Z,73.90
2018-02-16T06:48:18.926Z,74.40
2018-02-16T06:49:19.590Z,75.00
2018-02-16T06:50:19.342Z,73.10
2018-02-16T06:51:18.694Z,74.20
2018-02-16T06:52:19.212Z,71.20
2018-02-16T06:53:19.260Z,74.00
2018-02-16T06:54:40.311Z,75.70
2018-02-16T06:55:40.622Z,74.30
2018-02-16T06:56:40.154Z,71.60
2018-02-16T06:57:40.738Z,73.90
2018-02-16T06:58:40.897Z,75.50
2018-02-16T06:59:40.657Z,71.90
2018-02-16T07:00:40.485Z,73.30
2018-02-16T07:02:01.832Z,73.00
2018-02-16T07:03:02.235Z,70.00
2018-02-16T07:04:02.175Z,75.90
2018-02-16T07:05:02.176Z,71.30
2018-02-16T07:06:02.070Z,72.80
2018-02-16T07:07:02.087Z,70.10
2018-02-16T07:08:01.749Z,73.20
2018-02-16T07:09:02.235Z,67.30
2018-02-16T07:10:02.113Z,66.10
2018-02-16T07:11:01.989Z,68.20
2018-02-16T07:12:24.458Z,67.60
2018-02-16T07:13:24.845Z,67.10
2018-02-16T07:14:24.450Z,68.10
2018-02-16T07:15:25.603Z,68.40
2018-02-16T07:16:25.439Z,69.30
2018-02-16T07:17:25.312Z,64.50
2018-02-16T07:18:25.184Z,66.70
2018-02-16T07:19:46.206Z,66.20
2018-02-16T07:20:46.590Z,66.30
2018-02-16T07:21:46.106Z,67.00
2018-02-16T07:22:47.038Z,63.70
2018-02-16T07:23:46.723Z,65.90
2018-02-16T07:24:46.511Z,66.30
2018-02-16T07:25:46.442Z,66.10
2018-02-16T07:26:47.372Z,66.40
2018-02-16T07:27:46.680Z,62.90
2018-02-16T07:28:46.304Z,69.00
2018-02-16T07:29:47.241Z,66.80
2018-02-16T07:30:47.112Z,63.40
2018-02-16T07:31:47.122Z,63.30
2018-02-16T07:32:46.880Z,58.50
2018-02-16T07:33:46.675Z,59.50
2018-02-16T07:35:08.231Z,58.00
2018-02-16T07:36:08.780Z,57.00
2018-02-16T07:37:08.516Z,58.30
2018-02-16T07:38:08.018Z,54.50
2018-02-16T07:39:29.756Z,54.80
2018-02-16T07:40:51.773Z,51.90
2018-02-16T07:42:35.756Z,55.10
2018-02-16T07:43:36.740Z,53.60
2018-02-16T07:44:36.153Z,53.20
2018-02-16T07:45:36.054Z,54.00
2018-02-16T07:46:36.683Z,54.70
2018-02-16T07:47:36.339Z,52.70
2018-02-16T07:48:36.787Z,52.80
2018-02-16T07:49:36.636Z,53.00
2018-02-16T07:50:57.799Z,53.00
2018-02-16T07:51:57.922Z,53.90
2018-02-16T07:52:59.976Z,54.30
2018-02-16T07:54:19.608Z,53.50
2018-02-16T07:55:20.460Z,51.60
2018-02-16T07:56:20.067Z,53.50
2018-02-16T07:57:20.972Z,57.90
2018-02-16T07:58:20.299Z,55.20
2018-02-16T07:59:20.219Z,55.30
2018-02-16T08:00:21.080Z,53.80
2018-02-16T08:01:20.061Z,56.40
2018-02-16T08:02:20.889Z,55.60
2018-02-16T08:03:20.956Z,55.50
2018-02-16T08:04:42.515Z,56.70
2018-02-16T08:05:43.302Z,54.50
2018-02-16T08:06:42.715Z,53.10
2018-02-16T08:07:43.451Z,53.90
2018-02-16T08:09:26.428Z,55.70
2018-02-16T08:10:27.105Z,53.80
2018-02-16T08:11:26.654Z,53.70
2018-02-16T08:12:47.107Z,52.80
2018-02-16T08:13:47.734Z,53.30
2018-02-16T08:14:47.510Z,54.80
2018-02-16T08:15:47.936Z,52.10
2018-02-16T08:16:47.636Z,52.60
2018-02-16T08:17:48.475Z,53.00
2018-02-16T08:18:47.940Z,49.50
2018-02-16T08:19:47.325Z,50.70
2018-02-16T08:20:47.967Z,50.70
2018-02-16T08:21:47.782Z,48.00
2018-02-16T08:22:47.154Z,49.00
2018-02-16T08:23:47.663Z,48.80
2018-02-16T08:24:47.694Z,48.60
2018-02-16T08:25:48.393Z,48.80
2018-02-16T08:26:48.162Z,46.70
2018-02-16T08:28:09.306Z,47.80
2018-02-16T08:29:09.967Z,48.00
2018-02-16T08:30:09.800Z,49.00
2018-02-16T08:31:10.355Z,47.70
2018-02-16T08:32:10.092Z,46.30
2018-02-16T08:33:09.931Z,46.40
2018-02-16T08:34:09.343Z,45.50
2018-02-16T08:35:10.320Z,45.70
2018-02-16T08:36:10.115Z,45.30
2018-02-16T08:37:09.857Z,44.00
2018-02-16T08:38:09.269Z,43.00
2018-02-16T08:39:10.047Z,44.30
2018-02-16T08:40:31.223Z,42.70
2018-02-16T08:41:31.646Z,41.10
2018-02-16T08:42:31.120Z,41.90
2018-02-16T08:43:31.395Z,43.60
2018-02-16T08:44:32.228Z,44.40
2018-02-16T08:46:14.609Z,41.70
2018-02-16T08:47:15.452Z,43.60
2018-02-16T08:48:36.092Z,42.90
2018-02-16T08:49:36.769Z,42.40
2018-02-16T08:50:36.719Z,41.20
2018-02-16T08:51:36.160Z,41.40
2018-02-16T08:52:36.937Z,42.90
2018-02-16T08:53:36.393Z,40.40
2018-02-16T08:54:36.848Z,42.50
2018-02-16T08:55:36.411Z,40.70
2018-02-16T08:56:37.273Z,38.00
2018-02-16T08:57:37.063Z,36.60
2018-02-16T08:58:36.881Z,39.10
2018-02-16T08:59:36.546Z,38.50
2018-02-16T09:00:37.049Z,39.40
2018-02-16T09:01:36.595Z,37.40
2018-02-16T09:02:36.977Z,38.90
2018-02-16T09:03:36.521Z,36.20
2018-02-16T09:04:37.375Z,36.50
2018-02-16T09:05:37.923Z,35.20
2018-02-16T09:06:36.829Z,35.70
2018-02-16T09:07:36.533Z,33.10
2018-02-16T09:08:36.929Z,32.10
2018-02-16T09:09:36.733Z,32.40
2018-02-16T09:10:36.750Z,28.80
2018-02-16T09:11:36.540Z,28.20
2018-02-16T09:12:37.389Z,25.40
2018-02-16T09:13:37.408Z,23.00
2018-02-16T09:14:36.883Z,19.90
2018-02-16T09:15:58.422Z,20.40
2018-02-16T09:16:59.268Z,18.90
2018-02-16T09:17:59.115Z,18.00
2018-02-16T09:18:58.980Z,18.10
2018-02-16T09:20:19.729Z,16.30
2018-02-16T09:21:20.636Z,18.00
2018-02-16T09:22:20.086Z,16.30
2018-02-16T09:23:20.372Z,15.60
2018-02-16T09:24:20.399Z,15.70
2018-02-16T09:25:20.361Z,15.40
2018-02-16T09:26:20.009Z,13.60
2018-02-16T09:27:20.654Z,13.30
2018-02-16T09:28:20.124Z,14.10
2018-02-16T09:29:19.935Z,14.30
2018-02-16T09:30:20.827Z,14.20
2018-02-16T09:31:21.401Z,13.70
2018-02-16T09:32:20.109Z,13.90
2018-02-16T09:33:20.866Z,12.90
2018-02-16T09:34:20.799Z,14.80
2018-02-16T09:35:20.382Z,14.40
2018-02-16T09:36:19.963Z,14.50
2018-02-16T09:37:19.697Z,12.40
2018-02-16T09:38:20.624Z,12.50
2018-02-16T09:39:20.519Z,13.20
2018-02-16T09:40:42.207Z,12.80
2018-02-16T09:41:42.832Z,13.20
2018-02-16T09:42:42.604Z,12.90
2018-02-16T09:43:42.198Z,14.20
2018-02-16T09:45:05.032Z,12.40
2018-02-16T09:46:06.083Z,12.70
2018-02-16T09:47:05.972Z,11.70
2018-02-16T09:48:05.965Z,11.10
2018-02-16T09:49:05.968Z,11.00
2018-02-16T09:50:05.832Z,11.20
2018-02-16T09:51:05.634Z,12.10
2018-02-16T09:52:05.653Z,11.30
2018-02-16T09:53:26.698Z,11.40
2018-02-16T09:54:27.508Z,11.20
2018-02-16T09:55:27.087Z,10.90
2018-02-16T09:56:26.632Z,12.50
2018-02-16T09:57:48.905Z,11.30
2018-02-16T09:58:48.477Z,11.40
2018-02-16T09:59:49.510Z,11.40
2018-02-16T10:01:10.532Z,10.10
2018-02-16T10:02:11.968Z,10.30
2018-02-16T10:03:10.565Z,11.20
2018-02-16T10:04:11.570Z,11.00
2018-02-16T10:05:11.533Z,9.10
2018-02-16T10:06:11.338Z,10.70
2018-02-16T10:07:10.998Z,10.30
2018-02-16T10:08:10.875Z,10.90
2018-02-16T10:09:31.714Z,10.20
2018-02-16T10:10:32.831Z,11.40
2018-02-16T10:11:32.671Z,11.30
2018-02-16T10:12:32.236Z,10.30
2018-02-16T10:13:31.894Z,9.00
2018-02-16T10:14:33.011Z,9.80
2018-02-16T10:15:54.223Z,10.40
2018-02-16T10:16:55.206Z,8.40
2018-02-16T10:17:55.236Z,10.30
2018-02-16T10:18:54.696Z,10.90
2018-02-16T10:19:54.771Z,10.00
2018-02-16T10:20:54.267Z,10.90
2018-02-16T10:21:55.048Z,10.80
2018-02-16T10:22:54.821Z,11.20
2018-02-16T10:23:54.472Z,10.90
2018-02-16T10:24:54.121Z,11.30
2018-02-16T10:25:54.884Z,10.10
2018-02-16T10:26:54.532Z,10.90
2018-02-16T10:27:54.493Z,11.40
2018-02-16T10:28:54.208Z,13.10
2018-02-16T10:29:54.712Z,14.20
2018-02-16T10:30:54.813Z,14.60
2018-02-16T10:31:54.317Z,13.80
2018-02-16T10:32:55.058Z,14.20
2018-02-16T10:33:55.021Z,15.50
2018-02-16T10:34:54.604Z,14.40
2018-02-16T10:35:54.138Z,13.90
2018-02-16T10:36:54.667Z,14.20
2018-02-16T10:37:54.212Z,11.60
2018-02-16T10:38:54.630Z,13.90
2018-02-16T10:39:54.905Z,14.30
2018-02-16T10:40:54.680Z,13.60
2018-02-16T10:41:54.188Z,12.90
2018-02-16T10:42:55.785Z,13.00
2018-02-16T10:43:54.816Z,15.30
2018-02-16T10:44:55.140Z,15.40
2018-02-16T10:45:55.273Z,13.30
2018-02-16T10:46:55.234Z,12.70
2018-02-16T10:47:55.029Z,12.80
2018-02-16T10:48:54.965Z,12.70
2018-02-16T10:49:54.678Z,11.70
2018-02-16T10:50:54.254Z,11.70
2018-02-16T10:51:54.044Z,11.50
2018-02-16T10:52:54.845Z,11.40
2018-02-16T10:53:54.938Z,11.90
2018-02-16T10:54:54.630Z,12.60
2018-02-16T10:55:54.138Z,13.10
2018-02-16T10:56:54.570Z,12.20
2018-02-16T10:58:16.536Z,12.60
2018-02-16T10:59:38.724Z,13.30
2018-02-16T11:00:39.230Z,13.20
2018-02-16T11:01:38.943Z,13.40
2018-02-16T11:03:00.275Z,14.10
2018-02-16T11:04:01.151Z,12.70
2018-02-16T11:05:00.685Z,14.10
2018-02-16T11:06:00.444Z,13.00
2018-02-16T11:07:00.410Z,13.90
2018-02-16T11:08:00.864Z,12.50
2018-02-16T11:09:00.357Z,12.00
2018-02-16T11:10:00.343Z,11.40
2018-02-16T11:11:00.833Z,12.50
2018-02-16T11:12:00.231Z,12.90
2018-02-16T11:13:01.153Z,13.20
2018-02-16T11:14:01.800Z,13.00
2018-02-16T11:15:00.587Z,12.90
2018-02-16T11:16:00.488Z,11.70
2018-02-16T11:17:00.235Z,11.20
2018-02-16T11:18:00.622Z,13.40
2018-02-16T11:19:00.588Z,11.40
2018-02-16T11:20:00.391Z,10.60
2018-02-16T11:21:45.261Z,10.00
2018-02-16T11:22:48.399Z,9.10
2018-02-16T11:23:45.300Z,8.70
2018-02-16T11:24:45.685Z,8.00
2018-02-16T11:25:45.448Z,9.00
2018-02-16T11:26:46.234Z,8.30
2018-02-16T11:27:46.065Z,8.50
2018-02-16T11:28:45.923Z,7.40
2018-02-16T11:29:45.715Z,7.90
2018-02-16T11:30:45.629Z,8.60
2018-02-16T11:31:45.763Z,8.20
2018-02-16T11:32:45.410Z,7.20
2018-02-16T11:34:06.768Z,7.20
2018-02-16T11:35:07.812Z,7.20
2018-02-16T11:36:07.340Z,7.20
2018-02-16T11:37:07.300Z,7.70
2018-02-16T11:38:07.303Z,8.40
2018-02-16T11:39:06.754Z,8.80
2018-02-16T11:40:28.829Z,8.00
2018-02-16T11:41:29.491Z,8.00
2018-02-16T11:42:29.036Z,8.30
2018-02-16T11:43:29.054Z,7.80
2018-02-16T11:45:12.066Z,7.90
2018-02-16T11:46:34.574Z,7.80
2018-02-16T11:47:35.188Z,7.30
2018-02-16T11:48:34.975Z,7.20
2018-02-16T11:49:56.622Z,7.50
2018-02-16T11:50:57.559Z,7.20
2018-02-16T11:51:57.364Z,7.40
2018-02-16T11:52:56.923Z,7.50
2018-02-16T11:54:18.278Z,7.00
2018-02-16T11:55:19.116Z,7.40
2018-02-16T11:56:19.175Z,7.20
2018-02-16T11:57:18.586Z,6.50
2018-02-16T11:58:19.457Z,6.30
2018-02-16T11:59:19.156Z,6.70
2018-02-16T12:00:18.823Z,6.50
2018-02-16T12:01:18.483Z,6.10
2018-02-16T12:02:19.332Z,5.80
2018-02-16T12:03:19.101Z,5.10
2018-02-16T12:04:19.830Z,6.50
2018-02-16T12:05:18.440Z,7.10
2018-02-16T12:06:19.268Z,8.30
2018-02-16T12:07:40.418Z,6.10
2018-02-16T12:08:41.338Z,5.70
2018-02-16T12:09:41.096Z,6.10
2018-02-16T12:10:40.757Z,6.40
2018-02-16T12:11:40.299Z,5.70
2018-02-16T12:12:40.924Z,5.70
2018-02-16T12:13:40.765Z,5.20
2018-02-16T12:14:41.403Z,5.50
2018-02-16T12:15:40.916Z,5.50
2018-02-16T12:16:40.516Z,5.30
2018-02-16T12:17:41.091Z,5.70
2018-02-16T12:18:41.000Z,6.10
2018-02-16T12:19:40.947Z,5.20
2018-02-16T12:21:02.155Z,5.70
2018-02-16T12:22:03.195Z,4.70
2018-02-16T12:23:03.050Z,5.30
2018-02-16T12:24:02.768Z,5.40
2018-02-16T12:25:02.635Z,4.90
2018-02-16T12:26:03.213Z,4.50
2018-02-16T12:27:03.104Z,3.90
2018-02-16T12:28:02.712Z,4.90
2018-02-16T12:29:02.455Z,4.80
2018-02-16T12:30:03.155Z,4.70
2018-02-16T12:31:02.682Z,4.90
2018-02-16T12:32:03.701Z,4.60
2018-02-16T12:33:02.218Z,4.50
2018-02-16T12:34:02.710Z,5.00
2018-02-16T12:35:02.344Z,5.20
2018-02-16T12:36:03.184Z,5.00
2018-02-16T12:37:24.124Z,4.70
2018-02-16T12:38:24.644Z,4.50
2018-02-16T12:39:24.252Z,5.60
2018-02-16T12:40:24.861Z,5.10
2018-02-16T12:41:25.684Z,5.00
2018-02-16T12:42:24.534Z,4.70
2018-02-16T12:43:24.333Z,5.00
2018-02-16T12:44:25.266Z,4.70
2018-02-16T12:45:24.745Z,5.10
2018-02-16T12:46:24.295Z,4.30
2018-02-16T12:47:24.040Z,4.60
2018-02-16T12:48:25.002Z,4.50
2018-02-16T12:49:24.863Z,3.70
2018-02-16T12:50:24.339Z,3.80
2018-02-16T12:51:46.676Z,3.80
2018-02-16T12:53:09.115Z,4.00
2018-02-16T12:54:09.978Z,3.80
2018-02-16T12:55:09.957Z,4.20
2018-02-16T12:56:09.369Z,4.10
2018-02-16T12:57:31.366Z,4.00
2018-02-16T12:58:30.990Z,4.10
2018-02-16T12:59:30.618Z,4.50
2018-02-16T13:00:31.335Z,4.20
2018-02-16T13:01:30.956Z,4.60
2018-02-16T13:02:30.589Z,4.00
2018-02-16T13:03:31.614Z,4.40
2018-02-16T13:04:31.525Z,4.70
2018-02-16T13:05:31.518Z,3.40
2018-02-16T13:06:31.876Z,4.20
2018-02-16T13:07:31.756Z,4.00
2018-02-16T13:08:31.813Z,3.40
2018-02-16T13:09:30.908Z,3.40
2018-02-16T13:10:32.627Z,3.80
2018-02-16T13:11:53.361Z,3.60
2018-02-16T13:12:53.567Z,3.70
2018-02-16T13:13:53.226Z,4.00
2018-02-16T13:14:54.037Z,3.20
2018-02-16T13:15:53.786Z,3.10
2018-02-16T13:16:53.198Z,3.40
2018-02-16T13:17:53.268Z,3.20
2018-02-16T13:19:36.396Z,3.70
2018-02-16T13:20:37.128Z,3.90
2018-02-16T13:21:36.959Z,3.30
2018-02-16T13:22:36.564Z,3.80